Time;durP1;ratioP1;P1;durP2;ratioP2;P2;SDS_P1;SDS_P2;PMS_P1;PMS_P2;Temp;Humidity;BMP_temperature;BMP_pressure;BME280_temperature;BME280_humidity;BME280_pressure;Samples;Min_cycle;Max_cycle;Signal;HPM_P1;HPM_P2
2022/02/23 00:01:38;;;;;;;40.08;7.65;;;9.20;99.90;;;9.25;78.33;102094.78;5112259;28;20047;-63
2022/02/23 00:04:07;;;;;;;31.45;8.07;;;9.10;99.90;;;9.24;78.58;102107.94;5094118;28;20051;-62
2022/02/23 00:06:36;;;;;;;33.85;8.23;;;9.10;99.90;;;9.19;78.28;102110.50;5112416;28;20441;-63
2022/02/23 00:09:06;;;;;;;35.10;7.65;;;9.10;99.90;;;9.35;78.85;102119.63;5094135;28;20264;-63
2022/02/23 00:11:34;;;;;;;30.38;6.90;;;9.20;99.90;;;9.27;78.92;102116.78;5094117;28;20056;-64
2022/02/23 00:14:02;;;;;;;35.53;7.97;;;9.10;99.90;;;9.24;78.70;102129.94;5112188;28;20104;-62
2022/02/23 00:16:31;;;;;;;36.60;8.55;;;9.10;99.90;;;9.25;79.71;102125.56;5094278;28;20469;-63
2022/02/23 00:18:59;;;;;;;28.00;7.68;;;9.10;99.90;;;9.09;79.37;102134.91;5112819;28;20067;-62
2022/02/23 00:21:27;;;;;;;40.10;8.55;;;9.00;99.90;;;8.99;80.21;102136.44;5094415;28;20074;-62
2022/02/23 00:23:56;;;;;;;39.13;8.88;;;8.90;99.90;;;9.12;80.14;102139.38;5112499;28;20123;-63
2022/02/23 00:26:26;;;;;;;35.97;8.13;;;8.90;99.90;;;9.07;80.03;102140.16;5111953;28;20069;-62
2022/02/23 00:28:54;;;;;;;35.00;7.87;;;8.90;99.90;;;8.92;80.08;102123.09;5112260;28;20039;-63
2022/02/23 00:31:22;;;;;;;30.48;8.00;;;8.90;99.90;;;9.05;79.93;102147.16;5112155;28;20051;-61
2022/02/23 00:33:51;;;;;;;35.40;7.80;;;8.90;99.90;;;8.95;79.69;102149.53;5111946;28;20120;-61
2022/02/23 00:36:19;;;;;;;27.35;7.03;;;8.80;99.90;;;8.90;79.53;102152.06;5111781;28;20040;-61
2022/02/23 00:38:48;;;;;;;33.85;7.55;;;8.80;99.90;;;8.74;79.56;102141.13;5114563;28;20079;-61
2022/02/23 00:41:17;;;;;;;33.92;7.93;;;8.70;99.90;;;8.91;79.42;102159.13;5097783;28;20166;-61
2022/02/23 00:43:46;;;;;;;25.63;7.68;;;8.70;99.90;;;8.85;79.19;102160.72;5097908;28;20369;-61
2022/02/23 00:46:15;;;;;;;32.97;7.88;;;8.70;99.90;;;8.89;78.67;102157.31;5116141;28;20130;-61
2022/02/23 00:48:44;;;;;;;28.40;6.55;;;8.70;99.90;;;8.80;78.72;102157.09;5116264;28;20055;-61
2022/02/23 00:51:12;;;;;;;31.15;6.97;;;8.70;99.90;;;8.77;78.31;102150.00;5115777;28;20075;-63
2022/02/23 00:53:41;;;;;;;31.35;8.68;;;8.70;99.90;;;8.90;78.56;102164.38;5116124;28;20482;-61
2022/02/23 00:56:09;;;;;;;27.60;7.00;;;8.70;99.90;;;9.03;78.08;102158.50;5116373;28;20048;-60
2022/02/23 00:58:38;;;;;;;29.10;7.80;;;8.80;99.90;;;9.12;77.69;102157.84;5115688;28;20050;-63
2022/02/23 01:01:07;;;;;;;24.27;6.63;;;8.90;99.90;;;9.07;77.78;102163.00;5115502;28;20491;-61
2022/02/23 01:03:36;;;;;;;38.23;9.33;;;8.90;99.90;;;9.14;77.83;102172.84;5115532;28;20067;-61
2022/02/23 01:06:04;;;;;;;28.98;7.75;;;8.90;99.90;;;9.00;78.66;102166.38;5115386;28;20138;-61
2022/02/23 01:08:33;;;;;;;29.02;8.18;;;8.90;99.90;;;8.92;78.96;102173.22;5115396;28;20104;-61
2022/02/23 01:11:01;;;;;;;29.27;7.40;;;8.80;99.90;;;9.07;78.49;102174.47;5115292;28;20050;-61
2022/02/23 01:13:30;;;;;;;29.25;7.63;;;8.90;99.90;;;9.20;77.55;102174.72;5115164;28;20116;-60
2022/02/23 01:15:59;;;;;;;29.67;7.72;;;9.00;99.90;;;9.19;78.01;102186.16;5115419;28;20052;-60
2022/02/23 01:18:29;;;;;;;28.40;7.88;;;9.00;99.90;;;9.18;77.68;102198.44;5115149;28;20093;-60
2022/02/23 01:20:59;;;;;;;28.58;7.45;;;9.00;99.90;;;9.33;77.51;102196.13;5115483;28;20052;-60
2022/02/23 01:23:27;;;;;;;43.05;8.45;;;9.10;99.90;;;9.33;77.42;102196.13;5114939;28;20071;-60
2022/02/23 01:25:56;;;;;;;26.83;7.05;;;9.10;99.90;;;9.32;77.26;102193.47;5114953;28;20047;-61
2022/02/23 01:28:24;;;;;;;28.05;7.55;;;9.20;99.90;;;9.25;77.67;102194.22;5115117;28;20096;-62
2022/02/23 01:30:53;;;;;;;29.27;7.38;;;9.10;99.90;;;9.29;77.54;102204.84;5114848;28;20043;-60
2022/02/23 01:33:21;;;;;;;28.90;8.35;;;9.10;99.90;;;9.46;77.63;102211.41;5115360;28;20043;-61
2022/02/23 01:35:51;;;;;;;39.72;8.18;;;9.20;99.90;;;9.43;77.57;102213.97;5115008;28;20040;-61
2022/02/23 01:38:20;;;;;;;29.70;7.60;;;9.30;99.90;;;9.30;77.16;102217.22;5114623;28;20048;-61
2022/02/23 01:40:49;;;;;;;37.05;8.63;;;9.20;99.90;;;9.45;77.73;102217.53;5115040;28;20439;-60
2022/02/23 01:43:17;;;;;;;29.48;8.45;;;9.30;99.90;;;9.55;77.31;102219.53;5114507;28;20051;-61
2022/02/23 01:45:46;;;;;;;25.17;7.30;;;9.30;99.90;;;9.42;77.73;102217.47;5114541;28;20475;-61
2022/02/23 01:48:14;;;;;;;28.30;8.10;;;9.30;99.90;;;9.45;77.85;102228.09;5114511;28;20354;-61
2022/02/23 01:50:43;;;;;;;30.98;7.75;;;9.30;99.90;;;9.52;77.99;102235.31;5113457;28;20058;-62
2022/02/23 01:53:14;;;;;;;31.58;7.65;;;9.30;99.90;;;9.57;77.88;102231.00;5114961;28;20047;-60
2022/02/23 01:55:42;;;;;;;27.73;7.53;;;9.30;99.90;;;9.60;77.76;102233.72;5114467;28;20040;-61
2022/02/23 01:58:11;;;;;;;33.72;7.32;;;9.40;99.90;;;9.55;77.97;102239.75;5096330;28;20065;-61
2022/02/23 02:00:40;;;;;;;29.42;8.18;;;9.30;99.90;;;9.66;77.80;102238.22;5114519;28;20445;-60
2022/02/23 02:03:12;;;;;;;23.58;7.03;;;9.40;99.90;;;9.59;77.39;102234.59;5114623;28;20126;-61
2022/02/23 02:05:43;;;;;;;25.10;7.35;;;9.40;99.90;;;9.49;77.41;102224.66;5114085;28;20067;-60
2022/02/23 02:08:13;;;;;;;26.10;7.38;;;9.40;99.90;;;9.59;77.11;102237.22;5114188;28;20044;-60
2022/02/23 02:10:42;;;;;;;30.23;7.65;;;9.40;99.90;;;9.66;77.54;102240.88;5114051;28;20423;-60
2022/02/23 02:13:10;;;;;;;25.05;7.85;;;9.50;99.90;;;9.52;77.07;102244.97;5114622;28;20079;-61
2022/02/23 02:15:38;;;;;;;27.13;7.55;;;9.40;99.90;;;9.37;77.71;102249.94;5113954;28;20051;-61
2022/02/23 02:18:07;;;;;;;26.92;7.30;;;9.20;99.90;;;9.48;77.36;102244.03;5113846;28;20043;-61
2022/02/23 02:20:36;;;;;;;28.58;8.00;;;9.20;99.90;;;9.44;77.14;102239.53;5114015;28;20089;-62
2022/02/23 02:23:05;;;;;;;26.13;7.53;;;9.30;99.90;;;9.35;77.49;102239.31;5095378;28;20059;-60
2022/02/23 02:25:34;;;;;;;24.53;7.07;;;9.20;99.90;;;9.31;77.50;102241.88;5114047;28;20113;-61
2022/02/23 02:28:04;;;;;;;23.90;6.63;;;9.10;99.90;;;9.25;77.87;102245.28;5113952;28;20722;-60
2022/02/23 02:30:32;;;;;;;26.67;6.65;;;9.10;99.90;;;9.32;77.70;102248.91;5113720;28;20050;-60
2022/02/23 02:33:01;;;;;;;23.50;7.40;;;9.10;99.90;;;9.40;77.28;102248.25;5113687;28;20043;-60
2022/02/23 02:35:33;;;;;;;23.38;7.25;;;9.20;99.90;;;9.35;77.92;102247.22;5095199;28;20127;-60
2022/02/23 02:38:02;;;;;;;26.17;6.50;;;9.10;99.90;;;9.48;77.18;102248.41;5113934;28;20154;-61
2022/02/23 02:40:32;;;;;;;27.90;6.82;;;9.20;99.90;;;9.34;77.29;102226.97;5113359;28;20077;-60
2022/02/23 02:43:02;;;;;;;25.13;7.05;;;9.30;99.90;;;9.45;76.87;102253.59;5114100;28;20471;-60
2022/02/23 02:45:32;;;;;;;27.67;7.28;;;9.30;99.90;;;9.39;77.30;102258.78;5113781;28;20043;-60
2022/02/23 02:48:00;;;;;;;27.20;7.90;;;9.20;99.90;;;9.30;77.82;102262.09;5113948;28;20472;-60
2022/02/23 02:50:29;;;;;;;21.65;6.45;;;9.10;99.90;;;9.41;77.43;102257.03;5113383;28;20083;-61
2022/02/23 02:52:57;;;;;;;27.05;7.43;;;9.20;99.90;;;9.42;77.63;102259.75;5113339;28;20487;-60
2022/02/23 02:55:26;;;;;;;25.85;7.15;;;9.20;99.90;;;9.54;77.19;102264.41;5113428;28;20507;-60
2022/02/23 02:57:56;;;;;;;28.90;7.22;;;9.30;99.90;;;9.57;76.76;102254.78;5113416;28;20118;-60
2022/02/23 03:00:26;;;;;;;28.17;7.25;;;9.40;99.90;;;9.40;76.53;102239.44;5113167;28;20701;-60
2022/02/23 03:02:54;;;;;;;20.13;7.10;;;9.40;99.90;;;9.36;77.09;102259.59;5095095;28;20055;-61
2022/02/23 03:05:23;;;;;;;19.85;6.35;;;9.20;99.90;;;9.39;77.09;102272.84;5113230;28;20385;-60
2022/02/23 03:07:51;;;;;;;30.08;7.65;;;9.20;99.90;;;9.49;77.23;102268.66;5113747;28;20052;-60
2022/02/23 03:10:19;;;;;;;23.48;7.30;;;9.30;99.90;;;9.36;77.15;102264.88;5113338;28;20055;-60
2022/02/23 03:12:48;;;;;;;24.58;6.97;;;9.20;99.90;;;9.37;77.72;102273.69;5113433;28;20051;-60
2022/02/23 03:15:17;;;;;;;19.77;6.75;;;9.20;99.90;;;9.44;77.15;102271.22;5113243;28;20070;-60
2022/02/23 03:17:46;;;;;;;23.90;6.88;;;9.20;99.90;;;9.41;77.39;102272.88;5112897;28;20070;-60
2022/02/23 03:20:14;;;;;;;27.27;7.20;;;9.20;99.90;;;9.32;77.07;102270.03;5112878;28;20044;-60
2022/02/23 03:22:43;;;;;;;25.63;7.60;;;9.20;99.90;;;9.21;77.30;102256.63;5112994;28;20047;-62
2022/02/23 03:25:12;;;;;;;26.42;6.93;;;9.10;99.90;;;9.38;77.42;102279.00;5113083;28;20044;-60
2022/02/23 03:27:40;;;;;;;24.95;7.25;;;9.20;99.90;;;9.40;77.23;102276.41;5113048;28;20049;-60
2022/02/23 03:30:10;;;;;;;32.17;7.15;;;9.20;99.90;;;9.39;77.37;102282.56;5112966;28;20047;-60
2022/02/23 03:32:39;;;;;;;20.23;6.78;;;9.20;99.90;;;9.28;77.09;102274.38;5112667;28;20127;-60
2022/02/23 03:35:09;;;;;;;20.55;6.70;;;9.10;99.90;;;9.26;77.73;102286.63;5113527;28;20044;-61
2022/02/23 03:37:37;;;;;;;31.02;7.53;;;9.10;99.90;;;9.30;78.12;102283.22;5112690;28;20044;-61
2022/02/23 03:40:07;;;;;;;25.35;7.28;;;9.10;99.90;;;9.48;77.67;102286.28;5094678;28;20139;-61
2022/02/23 03:42:36;;;;;;;21.85;6.40;;;9.20;99.90;;;9.28;77.51;102286.66;5112552;28;20051;-60
2022/02/23 03:45:06;;;;;;;23.75;7.15;;;9.10;99.90;;;9.24;77.58;102280.44;5112461;28;20047;-60
2022/02/23 03:47:35;;;;;;;19.02;6.78;;;9.00;99.90;;;9.42;77.46;102290.53;5112662;28;20071;-60
2022/02/23 03:50:06;;;;;;;25.35;7.00;;;9.20;99.90;;;9.43;76.85;102280.00;5112160;28;20125;-61
2022/02/23 03:52:34;;;;;;;28.80;6.95;;;9.20;99.90;;;9.55;76.63;102330.47;5112742;28;20056;-61
2022/02/23 03:55:05;;;;;;;20.75;6.78;;;9.30;99.90;;;9.36;76.46;102295.66;5112907;28;20089;-60
2022/02/23 03:57:34;;;;;;;28.65;7.28;;;9.20;99.90;;;9.49;76.09;102297.72;5112628;28;20090;-60
2022/02/23 04:00:02;;;;;;;27.30;7.88;;;9.30;99.90;;;9.40;75.58;102285.22;5112215;28;20409;-60
2022/02/23 04:02:31;;;;;;;24.52;7.25;;;9.30;99.90;;;9.52;75.46;102306.63;5112352;28;20500;-60
2022/02/23 04:05:00;;;;;;;22.55;7.13;;;9.30;99.90;;;9.62;75.14;102308.59;5112668;28;20439;-60
2022/02/23 04:07:29;;;;;;;20.70;7.22;;;9.40;99.90;;;9.61;74.35;102314.75;5112331;28;20112;-60
2022/02/23 04:09:58;;;;;;;21.45;7.55;;;9.40;99.90;;;9.61;74.88;102317.41;5112093;28;20044;-61
2022/02/23 04:12:27;;;;;;;19.55;6.75;;;9.40;99.90;;;9.55;74.25;102325.19;5111792;28;20042;-60
2022/02/23 04:14:55;;;;;;;22.75;6.43;;;9.40;99.90;;;9.57;74.30;102319.94;5112079;28;20480;-60
2022/02/23 04:17:26;;;;;;;19.77;6.68;;;9.40;99.90;;;9.58;74.58;102327.88;5112281;28;20048;-60
2022/02/23 04:19:54;;;;;;;26.42;6.97;;;9.30;99.90;;;9.50;74.36;102321.56;5111916;28;20040;-60
2022/02/23 04:22:23;;;;;;;28.98;7.70;;;9.30;99.90;;;9.50;74.47;102329.47;5112067;28;20047;-60
2022/02/23 04:24:52;;;;;;;31.75;7.30;;;9.30;99.90;;;8.94;74.81;102232.19;5112272;28;20126;-61
2022/02/23 04:27:21;;;;;;;26.17;6.75;;;9.20;99.90;;;9.33;75.65;102314.97;5112038;28;20082;-61
2022/02/23 04:29:49;;;;;;;23.60;7.32;;;9.10;99.90;;;9.29;76.44;102318.38;5112100;28;20475;-60
2022/02/23 04:32:18;;;;;;;21.70;6.22;;;9.10;99.90;;;9.34;76.62;102319.41;5111813;28;20047;-60
2022/02/23 04:34:47;;;;;;;19.85;7.25;;;9.10;99.90;;;9.46;76.63;102324.06;5111709;28;20063;-61
2022/02/23 04:37:16;;;;;;;20.63;7.20;;;9.20;99.90;;;9.45;76.21;102312.63;5112069;28;20048;-60
2022/02/23 04:39:44;;;;;;;23.25;7.82;;;9.20;99.90;;;9.50;76.49;102318.00;5111711;28;20096;-61
2022/02/23 04:42:14;;;;;;;25.40;7.20;;;9.20;99.90;;;9.48;75.95;102319.72;5111593;28;20479;-62
2022/02/23 04:44:42;;;;;;;26.13;6.53;;;9.20;99.90;;;9.51;76.02;102314.50;5111685;28;20044;-60
2022/02/23 04:47:11;;;;;;;24.60;7.30;;;9.30;99.90;;;9.56;76.13;102319.03;5111700;28;20131;-60
2022/02/23 04:49:40;;;;;;;21.55;7.00;;;9.30;99.90;;;9.53;76.18;102324.25;5111861;28;20077;-60
2022/02/23 04:52:08;;;;;;;22.48;7.40;;;9.30;99.90;;;9.58;76.04;102324.38;5111776;28;20052;-60
2022/02/23 04:54:38;;;;;;;24.67;7.72;;;9.30;99.90;;;9.57;76.10;102326.09;5111875;28;20127;-60
2022/02/23 04:57:06;;;;;;;22.65;7.70;;;9.30;99.90;;;9.51;75.48;102323.31;5111597;28;20481;-60
2022/02/23 04:59:36;;;;;;;24.27;6.65;;;9.20;99.90;;;9.41;75.04;102326.59;5111817;28;20098;-60
2022/02/23 05:02:09;;;;;;;25.35;6.88;;;9.10;99.90;;;9.31;75.02;102324.59;5112066;28;20050;-60
2022/02/23 05:04:38;;;;;;;23.80;6.85;;;9.00;99.90;;;9.17;74.90;102307.53;5112041;28;20055;-60
2022/02/23 05:07:06;;;;;;;20.98;6.72;;;9.00;99.90;;;9.24;75.17;102317.38;5111504;28;20032;-60
2022/02/23 05:09:35;;;;;;;27.58;7.32;;;8.90;99.90;;;9.21;75.22;102322.59;5111647;28;20460;-58
2022/02/23 05:12:05;;;;;;;20.60;6.82;;;8.90;99.90;;;9.11;75.11;102325.88;5111369;28;20171;-59
2022/02/23 05:14:33;;;;;;;27.35;7.05;;;8.90;99.90;;;9.12;75.54;102327.63;5111726;28;20079;-58
2022/02/23 05:17:04;;;;;;;22.50;7.15;;;8.80;99.90;;;9.15;76.02;102332.13;5111358;28;20117;-59
2022/02/23 05:19:34;;;;;;;28.33;7.28;;;8.90;99.90;;;9.15;75.90;102333.00;5111606;28;20442;-59
2022/02/23 05:22:06;;;;;;;24.20;6.72;;;8.90;99.90;;;9.02;76.08;102315.97;5111553;28;20082;-59
2022/02/23 05:24:35;;;;;;;27.52;7.32;;;8.80;99.90;;;9.06;76.06;102340.69;5111685;28;20560;-62
2022/02/23 05:27:06;;;;;;;27.95;8.07;;;8.80;99.90;;;8.95;76.04;102332.50;5115681;28;20374;-59
2022/02/23 05:29:34;;;;;;;25.50;7.75;;;8.70;99.90;;;8.91;76.21;102346.47;5115275;28;20054;-60
2022/02/23 05:32:05;;;;;;;26.75;7.47;;;8.60;99.90;;;8.82;76.62;102347.97;5115241;28;20049;-60
2022/02/23 05:34:34;;;;;;;26.95;8.25;;;8.60;99.90;;;8.79;76.89;102350.53;5115531;28;20052;-60
2022/02/23 05:37:03;;;;;;;28.48;7.35;;;8.50;99.90;;;8.79;77.02;102353.16;5115163;28;20472;-61
2022/02/23 05:39:31;;;;;;;26.15;8.70;;;8.50;99.90;;;8.73;77.61;102350.38;5115181;28;20052;-59
2022/02/23 05:42:00;;;;;;;24.10;7.68;;;8.50;99.90;;;8.67;77.63;102353.72;5115052;28;20134;-59
2022/02/23 05:44:29;;;;;;;31.50;8.40;;;8.40;99.90;;;8.61;78.01;102355.31;5115069;28;20282;-60
2022/02/23 05:46:57;;;;;;;24.70;7.05;;;8.30;99.90;;;8.57;78.66;102353.44;5114745;28;20123;-59
2022/02/23 05:49:27;;;;;;;25.80;7.57;;;8.30;99.90;;;8.54;78.82;102350.72;5115044;28;20495;-59
2022/02/23 05:51:55;;;;;;;33.08;7.65;;;8.20;99.90;;;8.50;79.44;102354.09;5114690;28;20148;-60
2022/02/23 05:54:23;;;;;;;24.30;7.95;;;8.20;99.90;;;8.46;79.57;102357.53;5114946;28;20128;-60
2022/02/23 05:56:54;;;;;;;23.65;8.00;;;8.20;99.90;;;8.43;80.64;102358.34;5114678;28;20039;-59
2022/02/23 05:59:23;;;;;;;23.30;7.95;;;8.20;99.90;;;8.42;80.44;102355.66;5114984;28;20044;-60
2022/02/23 06:01:51;;;;;;;23.38;8.02;;;8.20;99.90;;;8.41;80.77;102353.88;5114780;28;20119;-60
2022/02/23 06:04:20;;;;;;;31.02;7.80;;;8.10;99.90;;;8.37;80.95;102354.63;5114671;28;20473;-61
2022/02/23 06:06:50;;;;;;;26.15;8.43;;;8.10;99.90;;;8.38;81.07;102366.97;5114373;28;20434;-60
2022/02/23 06:09:18;;;;;;;25.37;7.93;;;8.10;99.90;;;8.35;81.02;102348.41;5114543;28;20040;-59
2022/02/23 06:11:47;;;;;;;29.00;7.78;;;8.10;99.90;;;8.37;81.30;102355.53;5114451;28;20317;-60
2022/02/23 06:14:17;;;;;;;24.98;7.70;;;8.10;99.90;;;8.37;81.40;102363.44;5114781;28;20044;-59
2022/02/23 06:16:45;;;;;;;30.63;8.20;;;8.10;99.90;;;8.34;81.26;102358.09;5114467;28;20433;-59
2022/02/23 06:19:15;;;;;;;26.13;7.50;;;8.10;99.90;;;8.28;81.43;102357.00;5114318;28;20051;-60
2022/02/23 06:21:44;;;;;;;30.00;8.65;;;8.00;99.90;;;8.25;81.37;102355.16;5114432;28;20044;-60
2022/02/23 06:24:13;;;;;;;27.92;8.80;;;8.00;99.90;;;8.23;82.15;102349.81;5114030;28;20500;-60
2022/02/23 06:26:42;;;;;;;25.67;7.57;;;7.90;99.90;;;8.20;82.27;102359.41;5114319;28;20047;-62
2022/02/23 06:29:10;;;;;;;25.67;7.53;;;7.90;99.90;;;7.11;82.20;102219.16;5114208;28;20285;-60
2022/02/23 06:31:39;;;;;;;24.98;7.75;;;8.00;99.90;;;8.36;82.77;102363.41;5113859;28;20078;-60
2022/02/23 06:34:10;;;;;;;29.67;7.38;;;8.00;99.90;;;8.36;82.83;102360.75;5114135;28;20070;-62
2022/02/23 06:36:39;;;;;;;32.42;8.40;;;8.10;99.90;;;8.44;82.57;102359.25;5113563;28;20051;-60
2022/02/23 06:39:08;;;;;;;27.13;8.38;;;8.10;99.90;;;8.45;82.44;102356.63;5113950;28;20052;-59
2022/02/23 06:41:38;;;;;;;25.38;8.30;;;8.20;99.90;;;8.46;82.21;102362.81;5113720;28;20126;-59
2022/02/23 06:44:07;;;;;;;28.00;7.93;;;8.20;99.90;;;8.47;82.10;102364.59;5113838;28;20119;-60
2022/02/23 06:46:36;;;;;;;23.98;7.88;;;8.20;99.90;;;8.46;82.29;102365.44;5113552;28;20071;-60
2022/02/23 06:49:05;;;;;;;21.08;7.10;;;8.20;99.90;;;8.47;81.77;102356.69;5113723;28;20409;-60
2022/02/23 06:51:34;;;;;;;25.83;7.80;;;8.20;99.90;;;8.49;81.73;102354.97;5113642;28;20389;-60
2022/02/23 06:54:03;;;;;;;27.02;8.68;;;8.20;99.90;;;8.54;82.05;102350.72;5113861;28;20039;-60
2022/02/23 06:56:31;;;;;;;25.15;7.60;;;8.20;99.90;;;8.60;81.94;102353.53;5113548;28;20421;-60
2022/02/23 06:59:04;;;;;;;25.40;8.07;;;8.30;99.90;;;8.64;82.04;102347.47;5113195;28;20134;-60
2022/02/23 07:01:34;;;;;;;28.70;8.77;;;8.30;99.90;;;8.76;82.05;102358.38;5113159;28;20071;-60
2022/02/23 07:04:04;;;;;;;28.40;8.90;;;8.40;99.90;;;8.78;81.74;102360.22;5113395;28;20108;-60
2022/02/23 07:06:34;;;;;;;29.77;8.32;;;8.50;99.90;;;8.88;81.55;102359.56;5113336;28;20385;-59
2022/02/23 07:09:02;;;;;;;26.65;8.57;;;8.60;99.90;;;9.04;81.08;102360.88;5112973;28;20040;-61
2022/02/23 07:11:34;;;;;;;;;;;8.70;99.90;;;9.17;80.57;102362.97;5113316;28;20044;-61
2022/02/23 07:14:07;;;;;;;26.77;8.05;;;8.90;99.90;;;9.34;80.37;102345.81;5112813;28;19930;-61
2022/02/23 07:16:37;;;;;;;26.67;7.80;;;9.10;99.90;;;9.53;79.70;102363.88;5112962;28;20552;-60
2022/02/23 07:19:06;;;;;;;30.73;7.97;;;9.30;99.90;;;9.77;79.24;102366.19;5112726;28;20183;-60
2022/02/23 07:21:35;;;;;;;26.10;7.53;;;9.50;99.90;;;10.01;78.22;102374.66;5112806;28;20039;-60
2022/02/23 07:24:06;;;;;;;25.17;7.97;;;9.80;99.90;;;10.25;76.96;102369.94;5112654;28;20118;-61
2022/02/23 07:26:37;;;;;;;28.35;7.85;;;10.00;99.90;;;10.58;76.09;102382.97;5112985;28;20039;-61
2022/02/23 07:29:07;;;;;;;26.70;7.95;;;10.40;99.90;;;10.89;74.73;102385.34;5112862;28;20075;-61
2022/02/23 07:31:35;;;;;;;27.00;8.03;;;10.70;99.90;;;11.24;73.68;102380.66;5112551;28;20079;-62
2022/02/23 07:34:05;;;;;;;31.95;8.30;;;11.00;99.90;;;11.57;72.05;102383.88;5112344;28;20101;-63
2022/02/23 07:36:33;;;;;;;22.95;7.80;;;11.40;99.90;;;11.94;70.76;102391.56;5112383;28;20122;-62
2022/02/23 07:39:01;;;;;;;24.30;7.80;;;11.80;99.90;;;12.30;69.83;102396.44;5112122;28;20036;-62
2022/02/23 07:41:30;;;;;;;29.48;8.05;;;12.10;99.90;;;12.60;68.42;102402.16;5112179;28;20134;-62
2022/02/23 07:44:20;;;;;;;20.90;6.88;;;12.50;99.90;;;12.91;67.32;102398.09;5112257;28;20046;-62
2022/02/23 07:46:48;;;;;;;24.80;7.97;;;12.80;99.90;;;13.15;66.41;102401.00;5112031;28;20048;-62
2022/02/23 07:49:17;;;;;;;22.90;8.07;;;13.00;99.90;;;13.28;65.41;102409.09;5111667;28;20427;-62
2022/02/23 07:51:45;;;;;;;30.02;7.72;;;13.10;99.90;;;13.21;65.10;102414.34;5112347;28;20051;-63
2022/02/23 07:54:13;;;;;;;28.02;7.65;;;13.10;99.90;;;13.43;64.61;102411.03;5112215;28;20100;-62
2022/02/23 07:56:45;;;;;;;23.17;7.50;;;13.20;99.90;;;13.58;64.21;102411.13;5093970;28;20139;-62
2022/02/23 07:59:13;;;;;;;26.13;7.55;;;13.30;99.90;;;13.81;63.86;102412.19;5112289;28;20039;-62
2022/02/23 08:01:44;;;;;;;24.30;6.93;;;13.60;99.90;;;14.03;63.31;102408.78;5112253;28;20066;-62
2022/02/23 08:04:12;;;;;;;;;;;13.70;99.90;;;14.17;62.73;102408.88;5112234;28;20040;-63
2022/02/23 08:06:41;;;;;;;27.15;7.60;;;14.00;99.90;;;14.33;61.98;102387.72;5112271;28;19931;-62
2022/02/23 08:09:10;;;;;;;20.10;7.47;;;14.30;99.90;;;14.83;61.41;102417.19;5093804;28;20485;-62
2022/02/23 08:11:41;;;;;;;25.73;7.38;;;14.60;99.90;;;14.90;60.63;102392.34;5111901;28;20070;-62
2022/02/23 08:14:11;;;;;;;20.73;7.28;;;14.80;99.90;;;15.17;59.97;102408.41;5112169;28;20043;-63
2022/02/23 08:19:31;;;;;;;23.58;7.20;;;15.20;99.90;;;15.66;58.46;102408.44;5112069;28;20046;-63
2022/02/23 08:22:04;;;;;;;21.05;7.60;;;15.50;99.90;;;15.85;58.21;102415.53;5112352;28;20035;-62
2022/02/23 08:24:36;;;;;;;23.95;7.70;;;15.70;99.90;;;15.96;57.26;102424.41;5093697;28;20097;-64
2022/02/23 08:27:08;;;;;;;18.42;7.22;;;15.80;99.90;;;16.00;56.91;102415.50;5112252;28;20073;-61
2022/02/23 08:29:36;;;;;;;;;;;15.80;99.90;;;16.26;56.66;102410.97;5112553;28;20043;-61
2022/02/23 08:32:09;;;;;;;21.90;7.28;;;16.10;99.90;;;16.32;56.22;102405.63;5111702;28;19946;-62
2022/02/23 08:34:41;;;;;;;25.23;8.13;;;16.10;99.90;;;16.37;56.36;102411.88;5093618;28;20047;-62
2022/02/23 08:37:11;;;;;;;39.00;17.25;;;16.20;99.90;;;16.39;55.94;102410.06;5111727;28;20557;-62
2022/02/23 08:39:41;;;;;;;123.10;63.38;;;16.20;99.90;;;16.52;56.02;102411.84;5111629;28;20075;-64
2022/02/23 08:42:12;;;;;;;24.00;7.57;;;16.30;99.90;;;16.44;55.52;102418.94;5112295;28;20086;-63
2022/02/23 08:44:42;;;;;;;16.35;7.82;;;16.20;99.90;;;16.35;55.36;102394.94;5112187;28;20135;-62
2022/02/23 08:47:11;;;;;;;22.45;8.10;;;16.20;99.90;;;16.57;55.33;102409.16;5111942;28;20086;-62
2022/02/23 08:49:40;;;;;;;18.95;7.15;;;16.30;99.90;;;16.30;55.17;102415.41;5112416;28;20040;-62
2022/02/23 08:52:10;;;;;;;22.57;7.23;;;16.10;99.90;;;16.19;56.03;102410.13;5111913;28;20522;-62
2022/02/23 08:54:39;;;;;;;28.77;8.27;;;15.90;99.90;;;16.23;56.11;102411.00;5111489;28;20771;-62
2022/02/23 08:57:08;;;;;;;21.48;8.25;;;15.90;99.90;;;16.35;56.12;102408.31;5111751;28;20476;-62
2022/02/23 08:59:36;;;;;;;23.58;8.30;;;16.00;99.90;;;16.50;56.03;102413.63;5113711;28;20048;-63
2022/02/23 09:02:06;;;;;;;28.58;9.77;;;16.20;99.90;;;16.34;55.43;102405.66;5116003;28;20502;-62
2022/02/23 09:04:34;;;;;;;24.80;10.27;;;16.10;99.90;;;16.08;56.22;102405.72;5115909;28;20048;-62
2022/02/23 09:07:05;;;;;;;25.35;10.15;;;15.80;99.90;;;15.99;56.73;102419.06;5115395;28;20048;-63
2022/02/23 09:09:35;;;;;;;25.30;11.25;;;15.80;99.90;;;15.75;57.49;102413.78;5115768;28;20039;-63
2022/02/23 09:12:04;;;;;;;24.75;10.50;;;15.50;99.90;;;15.74;58.16;102411.97;5115250;28;20046;-62
2022/02/23 09:14:33;;;;;;;23.88;9.20;;;15.40;99.90;;;15.80;58.36;102425.31;5115208;28;20048;-62
2022/02/23 09:17:05;;;;;;;23.13;10.32;;;15.50;99.90;;;15.89;58.54;102417.31;5115080;28;20046;-61
2022/02/23 09:19:33;;;;;;;27.35;9.52;;;15.60;99.90;;;15.83;58.67;102414.66;5115112;28;20077;-63
2022/02/23 09:22:01;;;;;;;26.33;10.05;;;15.50;99.90;;;15.77;58.62;102418.22;5115007;28;20188;-62
2022/02/23 09:24:31;;;;;;;26.67;9.93;;;15.50;99.90;;;15.49;58.75;102410.22;5115041;28;20040;-63
2022/02/23 09:27:02;;;;;;;19.60;8.93;;;15.30;99.90;;;15.43;59.60;102415.56;5114945;28;20438;-61
2022/02/23 09:29:34;;;;;;;24.93;9.53;;;15.20;99.90;;;15.36;59.69;102414.63;5115196;28;20565;-61
2022/02/23 09:32:02;;;;;;;24.48;9.55;;;15.10;99.90;;;15.25;59.31;102416.41;5115122;28;20097;-60
2022/02/23 09:34:31;;;;;;;25.73;10.30;;;15.10;99.90;;;15.13;60.19;102416.38;5096706;28;20043;-62
2022/02/23 09:37:00;;;;;;;21.42;9.23;;;14.90;99.90;;;15.26;60.43;102407.50;5115401;28;20071;-62
2022/02/23 09:39:28;;;;;;;25.23;9.65;;;15.00;99.90;;;15.40;60.23;102405.75;5108566;28;20044;-63
2022/02/23 09:41:58;;;;;;;25.08;9.77;;;15.10;99.90;;;15.24;60.43;102404.84;5114609;28;20493;-60
2022/02/23 09:44:29;;;;;;;25.53;9.70;;;15.00;99.90;;;15.18;60.08;102398.59;5114583;28;20047;-62
2022/02/23 09:46:57;;;;;;;23.50;9.43;;;14.90;99.90;;;15.04;60.50;102403.03;5114755;28;20051;-62
2022/02/23 09:49:26;;;;;;;26.95;9.25;;;14.70;99.90;;;15.23;60.68;102396.84;5114924;28;20483;-63
2022/02/23 09:51:54;;;;;;;24.50;9.57;;;14.90;99.90;;;15.01;60.42;102417.25;5114907;28;20142;-62
2022/02/23 09:54:22;;;;;;;24.83;9.45;;;14.70;99.90;;;14.97;60.36;102409.22;5114858;28;20131;-62
2022/02/23 09:56:51;;;;;;;23.00;9.88;;;14.70;99.90;;;15.04;60.82;102414.56;5096654;28;20137;-63
2022/02/23 09:59:23;;;;;;;24.23;9.85;;;14.70;99.90;;;15.10;60.96;102411.03;5111693;28;20122;-61
2022/02/23 10:01:54;;;;;;;21.58;9.32;;;14.80;99.90;;;15.25;60.22;102406.59;5095979;28;20044;-62
2022/02/23 10:04:24;;;;;;;25.45;8.70;;;15.00;99.90;;;15.15;60.60;102396.84;5114739;28;20043;-62
2022/02/23 10:06:55;;;;;;;22.08;8.88;;;14.90;99.90;;;15.21;59.82;102401.28;5114554;28;20039;-62
2022/02/23 10:09:24;;;;;;;;;;;14.90;99.90;;;14.87;59.82;102399.44;5114633;28;20039;-62
2022/02/23 10:11:53;;;;;;;21.52;9.20;;;14.70;99.90;;;14.79;60.21;102385.22;5113093;28;20288;-62
2022/02/23 10:14:37;;;;;;;24.65;8.05;;;14.60;99.90;;;14.84;60.53;102389.69;5113831;28;20122;-62
2022/02/23 10:17:11;;;;;;;;;;;14.60;99.90;;;14.83;60.66;102394.97;5114786;28;20079;-62
2022/02/23 10:19:50;;;;;;;26.63;8.27;;;14.60;99.90;;;15.00;61.02;102399.47;5095659;28;19943;-65
2022/02/23 10:22:23;;;;;;;39.58;22.15;;;14.70;99.90;;;15.12;60.50;102403.91;5114156;28;20100;-71
2022/02/23 10:25:01;;;;;;;167.15;113.88;;;14.80;99.90;;;15.13;59.21;102395.94;5113748;28;20040;-69
2022/02/23 10:27:39;;;;;;;36.60;17.60;;;14.90;99.90;;;15.09;59.06;102394.16;5114029;28;20401;-69